sensor_id;sensor_type;location;lat;lon;timestamp;pressure;altitude;pressure_sealevel;temperature;humidity
57192;BME280;43052;52.588;13.396;2022-10-31T00:01:56;101430.03;;;10.48;77.97
57192;BME280;43052;52.588;13.396;2022-10-31T00:04:21;101414.28;;;10.41;77.90
57192;BME280;43052;52.588;13.396;2022-10-31T00:06:47;101425.63;;;10.43;77.79
57192;BME280;43052;52.588;13.396;2022-10-31T00:09:12;101411.63;;;10.38;77.70
57192;BME280;43052;52.588;13.396;2022-10-31T00:11:38;101403.72;;;10.28;77.85
57192;BME280;43052;52.588;13.396;2022-10-31T00:14:03;101427.28;;;10.36;77.93
57192;BME280;43052;52.588;13.396;2022-10-31T00:16:29;101418.53;;;10.28;78.08
57192;BME280;43052;52.588;13.396;2022-10-31T00:18:58;101429.03;;;10.34;78.01
57192;BME280;43052;52.588;13.396;2022-10-31T00:21:24;101417.59;;;10.21;78.10
57192;BME280;43052;52.588;13.396;2022-10-31T00:23:49;101425.44;;;10.19;77.94
57192;BME280;43052;52.588;13.396;2022-10-31T00:26:15;101435.94;;;10.27;77.89
57192;BME280;43052;52.588;13.396;2022-10-31T00:28:40;101428.06;;;10.19;77.77
57192;BME280;43052;52.588;13.396;2022-10-31T00:31:08;101435.03;;;10.22;78.00
57192;BME280;43052;52.588;13.396;2022-10-31T00:33:35;101437.66;;;10.22;77.82
57192;BME280;43052;52.588;13.396;2022-10-31T00:36:01;101444.59;;;10.18;78.09
57192;BME280;43052;52.588;13.396;2022-10-31T00:38:27;101442.81;;;10.14;77.88
57192;BME280;43052;52.588;13.396;2022-10-31T00:40:52;101443.72;;;10.15;77.84
57192;BME280;43052;52.588;13.396;2022-10-31T00:43:17;101430.63;;;10.10;77.90
57192;BME280;43052;52.588;13.396;2022-10-31T00:45:43;101448.03;;;10.13;78.03
57192;BME280;43052;52.588;13.396;2022-10-31T00:48:08;101438.41;;;10.07;77.96
57192;BME280;43052;52.588;13.396;2022-10-31T00:50:34;101444.50;;;10.06;78.01
57192;BME280;43052;52.588;13.396;2022-10-31T00:52:59;101413.00;;;9.86;78.14
57192;BME280;43052;52.588;13.396;2022-10-31T00:55:24;101434.84;;;9.93;78.06
57192;BME280;43052;52.588;13.396;2022-10-31T00:57:50;101449.72;;;10.04;77.88
57192;BME280;43052;52.588;13.396;2022-10-31T01:00:15;101440.06;;;9.91;78.10
57192;BME280;43052;52.588;13.396;2022-10-31T01:02:41;101443.53;;;9.90;78.23
57192;BME280;43052;52.588;13.396;2022-10-31T01:05:06;101454.91;;;10.00;78.35
57192;BME280;43052;52.588;13.396;2022-10-31T01:07:31;101448.75;;;9.92;78.13
57192;BME280;43052;52.588;13.396;2022-10-31T01:09:57;101453.94;;;9.88;77.86
57192;BME280;43052;52.588;13.396;2022-10-31T01:12:22;101449.63;;;9.89;78.25
57192;BME280;43052;52.588;13.396;2022-10-31T01:14:47;101454.84;;;9.92;78.06
57192;BME280;43052;52.588;13.396;2022-10-31T01:17:13;101461.81;;;9.92;78.02
57192;BME280;43052;52.588;13.396;2022-10-31T01:19:39;101461.78;;;9.85;78.15
57192;BME280;43052;52.588;13.396;2022-10-31T01:22:04;101455.63;;;9.80;77.99
57192;BME280;43052;52.588;13.396;2022-10-31T01:24:29;101419.75;;;9.59;77.98
57192;BME280;43052;52.588;13.396;2022-10-31T01:26:55;101463.50;;;9.82;77.80
57192;BME280;43052;52.588;13.396;2022-10-31T01:29:20;101453.00;;;9.79;77.96
57192;BME280;43052;52.588;13.396;2022-10-31T01:31:45;101440.72;;;9.67;77.76
57192;BME280;43052;52.588;13.396;2022-10-31T01:34:13;101467.81;;;9.81;77.90
57192;BME280;43052;52.588;13.396;2022-10-31T01:36:38;101454.69;;;9.69;77.77
57192;BME280;43052;52.588;13.396;2022-10-31T01:39:09;101454.63;;;9.64;77.89
57192;BME280;43052;52.588;13.396;2022-10-31T01:41:37;101459.91;;;9.69;77.91
57192;BME280;43052;52.588;13.396;2022-10-31T01:46:49;101473.94;;;9.82;77.75
57192;BME280;43052;52.588;13.396;2022-10-31T01:49:23;101465.22;;;9.80;77.78
57192;BME280;43052;52.588;13.396;2022-10-31T01:51:54;101446.75;;;9.63;77.66
57192;BME280;43052;52.588;13.396;2022-10-31T01:54:24;101464.22;;;9.68;77.45
57192;BME280;43052;52.588;13.396;2022-10-31T01:56:53;101468.56;;;9.66;77.76
57192;BME280;43052;52.588;13.396;2022-10-31T01:59:21;101475.53;;;9.66;77.88
57192;BME280;43052;52.588;13.396;2022-10-31T02:01:50;101458.97;;;9.65;78.11
57192;BME280;43052;52.588;13.396;2022-10-31T02:04:16;101481.66;;;9.68;78.10
57192;BME280;43052;52.588;13.396;2022-10-31T02:06:49;101474.69;;;9.70;77.97
57192;BME280;43052;52.588;13.396;2022-10-31T02:09:17;101486.88;;;9.68;77.90
57192;BME280;43052;52.588;13.396;2022-10-31T02:11:46;101472.81;;;9.58;77.84
57192;BME280;43052;52.588;13.396;2022-10-31T02:14:11;101478.09;;;9.61;77.84
57192;BME280;43052;52.588;13.396;2022-10-31T02:16:36;101479.00;;;9.63;77.81
57192;BME280;43052;52.588;13.396;2022-10-31T02:19:04;101467.66;;;9.63;77.69
57192;BME280;43052;52.588;13.396;2022-10-31T02:21:44;101479.03;;;9.69;77.78
57192;BME280;43052;52.588;13.396;2022-10-31T02:24:42;101472.97;;;9.70;77.40
57192;BME280;43052;52.588;13.396;2022-10-31T02:30:06;101476.47;;;9.72;77.38
57192;BME280;43052;52.588;13.396;2022-10-31T02:32:52;101474.69;;;9.70;77.48
57192;BME280;43052;52.588;13.396;2022-10-31T02:35:31;101468.53;;;9.65;77.32
57192;BME280;43052;52.588;13.396;2022-10-31T02:38:12;101456.31;;;9.57;77.39
57192;BME280;43052;52.588;13.396;2022-10-31T02:40:59;101458.97;;;9.62;77.62
57192;BME280;43052;52.588;13.396;2022-10-31T02:43:39;101473.78;;;9.66;77.79
57192;BME280;43052;52.588;13.396;2022-10-31T02:46:32;101474.63;;;9.65;77.74
57192;BME280;43052;52.588;13.396;2022-10-31T02:49:05;101467.66;;;9.63;77.64
57192;BME280;43052;52.588;13.396;2022-10-31T02:51:32;101472.88;;;9.63;77.58
57192;BME280;43052;52.588;13.396;2022-10-31T02:53:57;101478.94;;;9.60;77.60
57192;BME280;43052;52.588;13.396;2022-10-31T02:56:22;101474.56;;;9.56;77.64
57192;BME280;43052;52.588;13.396;2022-10-31T02:58:53;101497.28;;;9.63;77.70
57192;BME280;43052;52.588;13.396;2022-10-31T03:01:33;101488.53;;;9.60;77.63
57192;BME280;43052;52.588;13.396;2022-10-31T03:04:14;101497.19;;;9.57;77.75
57192;BME280;43052;52.588;13.396;2022-10-31T03:07:03;101484.03;;;9.45;77.71
57192;BME280;43052;52.588;13.396;2022-10-31T03:10:01;101493.63;;;9.47;77.88
57192;BME280;43052;52.588;13.396;2022-10-31T03:12:38;101504.97;;;9.51;77.85
57192;BME280;43052;52.588;13.396;2022-10-31T03:17:47;101491.81;;;9.40;78.02
57192;BME280;43052;52.588;13.396;2022-10-31T03:20:16;101490.09;;;9.44;77.79
57192;BME280;43052;52.588;13.396;2022-10-31T03:22:45;101501.44;;;9.46;77.74
57192;BME280;43052;52.588;13.396;2022-10-31T03:25:11;101500.53;;;9.44;78.18
57192;BME280;43052;52.588;13.396;2022-10-31T03:27:38;101508.38;;;9.42;78.00
57192;BME280;43052;52.588;13.396;2022-10-31T03:30:06;101504.84;;;9.40;78.27
57192;BME280;43052;52.588;13.396;2022-10-31T03:32:37;101517.97;;;9.45;78.31
57192;BME280;43052;52.588;13.396;2022-10-31T03:35:05;101505.69;;;9.37;78.29
57192;BME280;43052;52.588;13.396;2022-10-31T03:37:34;101518.88;;;9.47;78.25
57192;BME280;43052;52.588;13.396;2022-10-31T03:40:02;101524.91;;;9.44;78.61
57192;BME280;43052;52.588;13.396;2022-10-31T03:42:31;101533.63;;;9.48;78.60
57192;BME280;43052;52.588;13.396;2022-10-31T03:45:02;101524.91;;;9.44;78.52
57192;BME280;43052;52.588;13.396;2022-10-31T03:47:29;101527.50;;;9.43;78.83
57192;BME280;43052;52.588;13.396;2022-10-31T03:49:54;101517.84;;;9.34;78.83
57192;BME280;43052;52.588;13.396;2022-10-31T03:52:27;101544.03;;;9.41;78.78
57192;BME280;43052;52.588;13.396;2022-10-31T03:54:59;101543.16;;;9.41;78.87
57192;BME280;43052;52.588;13.396;2022-10-31T03:57:35;101538.84;;;9.45;79.12
57192;BME280;43052;52.588;13.396;2022-10-31T04:00:15;101543.22;;;9.46;79.05
57192;BME280;43052;52.588;13.396;2022-10-31T04:02:45;101534.53;;;9.48;79.46
57192;BME280;43052;52.588;13.396;2022-10-31T04:05:13;101530.16;;;9.46;79.45
57192;BME280;43052;52.588;13.396;2022-10-31T04:07:44;101542.38;;;9.48;79.33
57192;BME280;43052;52.588;13.396;2022-10-31T04:10:13;101526.66;;;9.44;79.32
57192;BME280;43052;52.588;13.396;2022-10-31T04:12:42;101552.88;;;9.53;79.62
57192;BME280;43052;52.588;13.396;2022-10-31T04:15:09;101551.97;;;9.51;79.54
57192;BME280;43052;52.588;13.396;2022-10-31T04:17:39;101556.38;;;9.55;79.78
57192;BME280;43052;52.588;13.396;2022-10-31T04:20:06;101538.91;;;9.49;79.80
57192;BME280;43052;52.588;13.396;2022-10-31T04:22:31;101524.09;;;9.47;79.99
57192;BME280;43052;52.588;13.396;2022-10-31T04:24:56;101551.22;;;9.60;79.81
57192;BME280;43052;52.588;13.396;2022-10-31T04:27:22;101536.28;;;9.51;79.87
57192;BME280;43052;52.588;13.396;2022-10-31T04:29:47;101545.88;;;9.52;79.89
57192;BME280;43052;52.588;13.396;2022-10-31T04:32:12;101545.94;;;9.55;79.95
57192;BME280;43052;52.588;13.396;2022-10-31T04:34:37;101547.69;;;9.59;80.09
57192;BME280;43052;52.588;13.396;2022-10-31T04:37:02;101558.22;;;9.65;80.01
57192;BME280;43052;52.588;13.396;2022-10-31T04:39:28;101551.22;;;9.61;80.16
57192;BME280;43052;52.588;13.396;2022-10-31T04:41:53;101538.06;;;9.53;80.26
57192;BME280;43052;52.588;13.396;2022-10-31T04:44:18;101547.69;;;9.57;80.08
57192;BME280;43052;52.588;13.396;2022-10-31T04:46:43;101556.38;;;9.56;80.00
57192;BME280;43052;52.588;13.396;2022-10-31T04:49:09;101551.97;;;9.51;79.83
57192;BME280;43052;52.588;13.396;2022-10-31T04:51:34;101572.06;;;9.56;80.04
57192;BME280;43052;52.588;13.396;2022-10-31T04:53:59;101567.69;;;9.55;80.00
57192;BME280;43052;52.588;13.396;2022-10-31T04:56:25;101548.44;;;9.46;80.09
57192;BME280;43052;52.588;13.396;2022-10-31T04:58:50;101556.28;;;9.49;80.15
57192;BME280;43052;52.588;13.396;2022-10-31T05:01:15;101556.22;;;9.43;79.86
57192;BME280;43052;52.588;13.396;2022-10-31T05:03:40;101556.22;;;9.44;80.10
57192;BME280;43052;52.588;13.396;2022-10-31T05:06:06;101544.88;;;9.39;80.12
57192;BME280;43052;52.588;13.396;2022-10-31T05:08:32;101566.78;;;9.50;79.98
57192;BME280;43052;52.588;13.396;2022-10-31T05:11:01;101567.63;;;9.51;80.41
57192;BME280;43052;52.588;13.396;2022-10-31T05:13:27;101557.06;;;9.41;80.33
57192;BME280;43052;52.588;13.396;2022-10-31T05:15:52;101567.63;;;9.52;80.35
57192;BME280;43052;52.588;13.396;2022-10-31T05:18:17;101562.34;;;9.46;80.52
57192;BME280;43052;52.588;13.396;2022-10-31T05:20:42;101572.81;;;9.48;80.73
57192;BME280;43052;52.588;13.396;2022-10-31T05:23:08;101570.25;;;9.51;80.58
57192;BME280;43052;52.588;13.396;2022-10-31T05:25:33;101582.44;;;9.52;80.46
57192;BME280;43052;52.588;13.396;2022-10-31T05:27:58;101575.47;;;9.51;80.74
57192;BME280;43052;52.588;13.396;2022-10-31T05:30:26;101580.78;;;9.59;80.54
57192;BME280;43052;52.588;13.396;2022-10-31T05:32:52;101577.28;;;9.58;80.81
57192;BME280;43052;52.588;13.396;2022-10-31T05:35:20;101585.22;;;9.64;80.82
57192;BME280;43052;52.588;13.396;2022-10-31T05:37:46;101584.31;;;9.62;80.72
57192;BME280;43052;52.588;13.396;2022-10-31T05:40:13;101592.19;;;9.67;80.96
57192;BME280;43052;52.588;13.396;2022-10-31T05:42:40;101590.44;;;9.67;81.02
57192;BME280;43052;52.588;13.396;2022-10-31T05:45:11;101584.31;;;9.65;81.17
57192;BME280;43052;52.588;13.396;2022-10-31T05:47:36;101587.84;;;9.67;81.26
57192;BME280;43052;52.588;13.396;2022-10-31T05:50:02;101580.91;;;9.71;81.37
57192;BME280;43052;52.588;13.396;2022-10-31T05:52:27;101596.63;;;9.76;81.22
57192;BME280;43052;52.588;13.396;2022-10-31T05:54:52;101585.25;;;9.69;81.05
57192;BME280;43052;52.588;13.396;2022-10-31T05:57:17;101581.81;;;9.71;81.13
57192;BME280;43052;52.588;13.396;2022-10-31T05:59:43;101577.38;;;9.66;80.89
57192;BME280;43052;52.588;13.396;2022-10-31T06:02:08;101587.94;;;9.74;80.95
57192;BME280;43052;52.588;13.396;2022-10-31T06:04:33;101587.09;;;9.78;80.98
57192;BME280;43052;52.588;13.396;2022-10-31T06:06:58;101595.94;;;9.92;81.16
57192;BME280;43052;52.588;13.396;2022-10-31T06:09:24;101593.31;;;9.92;80.95
57192;BME280;43052;52.588;13.396;2022-10-31T06:11:49;101584.63;;;9.90;81.05
57192;BME280;43052;52.588;13.396;2022-10-31T06:14:14;101602.16;;;10.03;81.12
57192;BME280;43052;52.588;13.396;2022-10-31T06:16:39;101586.47;;;10.03;81.03
57192;BME280;43052;52.588;13.396;2022-10-31T06:19:05;101588.28;;;10.11;80.96
57192;BME280;43052;52.588;13.396;2022-10-31T06:21:30;101612.88;;;10.31;80.69
57192;BME280;43052;52.588;13.396;2022-10-31T06:23:55;101593.75;;;10.35;80.69
57192;BME280;43052;52.588;13.396;2022-10-31T06:26:20;101597.44;;;10.56;80.46
57192;BME280;43052;52.588;13.396;2022-10-31T06:28:46;101616.91;;;10.95;80.33
57192;BME280;43052;52.588;13.396;2022-10-31T06:31:11;101614.47;;;11.25;79.65
57192;BME280;43052;52.588;13.396;2022-10-31T06:33:36;101613.75;;;11.72;78.92
57192;BME280;43052;52.588;13.396;2022-10-31T06:36:01;101628.78;;;12.26;78.19
57192;BME280;43052;52.588;13.396;2022-10-31T06:38:27;101617.44;;;12.74;77.26
57192;BME280;43052;52.588;13.396;2022-10-31T06:40:53;101617.34;;;13.22;76.48
57192;BME280;43052;52.588;13.396;2022-10-31T06:43:19;101627.69;;;13.74;75.63
57192;BME280;43052;52.588;13.396;2022-10-31T06:45:44;101623.81;;;14.36;74.32
57192;BME280;43052;52.588;13.396;2022-10-31T06:48:09;101623.19;;;15.06;72.77
57192;BME280;43052;52.588;13.396;2022-10-31T06:50:35;101621.72;;;15.56;70.89
57192;BME280;43052;52.588;13.396;2022-10-31T06:53:00;101611.06;;;15.67;69.93
57192;BME280;43052;52.588;13.396;2022-10-31T06:55:26;101623.53;;;15.54;69.43
57192;BME280;43052;52.588;13.396;2022-10-31T06:57:53;101636.47;;;15.74;68.77
57192;BME280;43052;52.588;13.396;2022-10-31T07:00:19;101645.16;;;16.43;67.32
57192;BME280;43052;52.588;13.396;2022-10-31T07:03:10;101636.38;;;16.96;65.26
57192;BME280;43052;52.588;13.396;2022-10-31T07:05:36;101630.69;;;17.62;63.59
57192;BME280;43052;52.588;13.396;2022-10-31T07:08:05;101640.22;;;18.49;61.72
57192;BME280;43052;52.588;13.396;2022-10-31T07:10:33;101638.84;;;19.35;59.82
57192;BME280;43052;52.588;13.396;2022-10-31T07:13:00;101644.84;;;20.03;58.50
57192;BME280;43052;52.588;13.396;2022-10-31T07:15:27;101636.66;;;20.91;57.29
57192;BME280;43052;52.588;13.396;2022-10-31T07:17:53;101632.09;;;21.91;54.99
57192;BME280;43052;52.588;13.396;2022-10-31T07:20:18;101638.97;;;22.84;53.39
57192;BME280;43052;52.588;13.396;2022-10-31T07:22:44;101635.81;;;23.75;50.30
57192;BME280;43052;52.588;13.396;2022-10-31T07:25:09;101634.38;;;24.43;48.37
57192;BME280;43052;52.588;13.396;2022-10-31T07:27:39;101635.59;;;25.23;45.38
57192;BME280;43052;52.588;13.396;2022-10-31T07:30:06;101629.19;;;25.75;44.62
57192;BME280;43052;52.588;13.396;2022-10-31T07:32:42;101631.03;;;26.23;42.93
57192;BME280;43052;52.588;13.396;2022-10-31T07:35:09;101632.66;;;26.86;41.63
57192;BME280;43052;52.588;13.396;2022-10-31T07:37:35;101637.03;;;27.47;40.65
57192;BME280;43052;52.588;13.396;2022-10-31T07:40:01;101637.97;;;28.02;39.31
57192;BME280;43052;52.588;13.396;2022-10-31T07:42:27;101646.34;;;28.65;38.91
57192;BME280;43052;52.588;13.396;2022-10-31T07:44:52;101645.94;;;29.23;37.69
57192;BME280;43052;52.588;13.396;2022-10-31T07:47:17;101654.56;;;29.54;36.24
57192;BME280;43052;52.588;13.396;2022-10-31T07:49:42;101651.44;;;28.29;36.93
57192;BME280;43052;52.588;13.396;2022-10-31T07:52:08;101640.59;;;26.27;40.08
57192;BME280;43052;52.588;13.396;2022-10-31T07:54:33;101664.63;;;24.43;42.83
57192;BME280;43052;52.588;13.396;2022-10-31T07:56:58;101671.34;;;23.16;45.76
57192;BME280;43052;52.588;13.396;2022-10-31T07:59:23;101662.75;;;22.24;47.43
57192;BME280;43052;52.588;13.396;2022-10-31T08:01:50;101672.03;;;21.42;49.43
57192;BME280;43052;52.588;13.396;2022-10-31T08:04:15;101665.41;;;20.80;51.03
57192;BME280;43052;52.588;13.396;2022-10-31T08:06:41;101677.97;;;20.75;51.34
57192;BME280;43052;52.588;13.396;2022-10-31T08:09:06;101676.09;;;20.50;51.80
57192;BME280;43052;52.588;13.396;2022-10-31T08:11:31;101679.25;;;20.34;52.79
57192;BME280;43052;52.588;13.396;2022-10-31T08:13:56;101680.59;;;20.19;53.05
57192;BME280;43052;52.588;13.396;2022-10-31T08:16:22;101685.41;;;20.08;53.41
57192;BME280;43052;52.588;13.396;2022-10-31T08:18:47;101672.09;;;19.78;54.02
57192;BME280;43052;52.588;13.396;2022-10-31T08:21:12;101678.72;;;19.63;54.42
57192;BME280;43052;52.588;13.396;2022-10-31T08:23:38;101681.69;;;19.52;55.04
57192;BME280;43052;52.588;13.396;2022-10-31T08:26:03;101680.06;;;19.47;55.35
57192;BME280;43052;52.588;13.396;2022-10-31T08:28:30;101688.69;;;19.55;55.43
57192;BME280;43052;52.588;13.396;2022-10-31T08:30:57;101683.09;;;19.64;55.08
57192;BME280;43052;52.588;13.396;2022-10-31T08:33:23;101691.44;;;19.52;55.64
57192;BME280;43052;52.588;13.396;2022-10-31T08:35:48;101701.41;;;19.44;55.79
57192;BME280;43052;52.588;13.396;2022-10-31T08:38:13;101703.34;;;19.35;56.08
57192;BME280;43052;52.588;13.396;2022-10-31T08:40:39;101693.97;;;19.23;56.40
57192;BME280;43052;52.588;13.396;2022-10-31T08:43:06;101695.56;;;19.29;55.97
57192;BME280;43052;52.588;13.396;2022-10-31T08:45:34;101702.13;;;19.49;55.78
57192;BME280;43052;52.588;13.396;2022-10-31T08:48:01;101684.25;;;19.87;55.14
57192;BME280;43052;52.588;13.396;2022-10-31T08:50:28;101681.78;;;20.93;53.41
57192;BME280;43052;52.588;13.396;2022-10-31T08:52:53;101679.47;;;22.51;50.50
57192;BME280;43052;52.588;13.396;2022-10-31T08:55:19;101666.06;;;23.75;47.60
57192;BME280;43052;52.588;13.396;2022-10-31T08:57:44;101673.00;;;25.07;44.37
57192;BME280;43052;52.588;13.396;2022-10-31T09:00:09;101676.38;;;26.42;41.73
57192;BME280;43052;52.588;13.396;2022-10-31T09:02:35;101675.56;;;27.75;39.67
57192;BME280;43052;52.588;13.396;2022-10-31T09:05:02;101676.91;;;29.04;37.30
57192;BME280;43052;52.588;13.396;2022-10-31T09:07:27;101682.63;;;30.01;35.96
57192;BME280;43052;52.588;13.396;2022-10-31T09:09:52;101672.50;;;31.12;33.90
57192;BME280;43052;52.588;13.396;2022-10-31T09:12:17;101678.03;;;31.45;32.65
57192;BME280;43052;52.588;13.396;2022-10-31T09:14:43;101679.25;;;31.18;33.01
57192;BME280;43052;52.588;13.396;2022-10-31T09:17:08;101679.84;;;31.44;31.87
57192;BME280;43052;52.588;13.396;2022-10-31T09:19:33;101676.25;;;30.98;32.38
57192;BME280;43052;52.588;13.396;2022-10-31T09:21:58;101678.00;;;29.78;33.99
57192;BME280;43052;52.588;13.396;2022-10-31T09:24:24;101689.66;;;28.75;36.32
57192;BME280;43052;52.588;13.396;2022-10-31T09:26:49;101679.53;;;27.96;36.75
57192;BME280;43052;52.588;13.396;2022-10-31T09:29:14;101698.63;;;27.92;37.71
57192;BME280;43052;52.588;13.396;2022-10-31T09:31:39;101692.63;;;27.59;37.40
57192;BME280;43052;52.588;13.396;2022-10-31T09:34:05;101695.66;;;27.96;36.91
57192;BME280;43052;52.588;13.396;2022-10-31T09:36:30;101702.50;;;28.97;35.70
57192;BME280;43052;52.588;13.396;2022-10-31T09:38:55;101696.44;;;30.21;33.39
57192;BME280;43052;52.588;13.396;2022-10-31T09:44:17;101702.00;;;29.44;34.80
57192;BME280;43052;52.588;13.396;2022-10-31T09:47:05;101712.19;;;28.87;35.36
57192;BME280;43052;52.588;13.396;2022-10-31T09:49:53;101711.00;;;29.68;34.11
57192;BME280;43052;52.588;13.396;2022-10-31T09:52:28;101716.31;;;29.57;34.37
57192;BME280;43052;52.588;13.396;2022-10-31T09:55:00;101705.56;;;30.31;33.42
57192;BME280;43052;52.588;13.396;2022-10-31T09:57:32;101709.31;;;31.13;32.15
57192;BME280;43052;52.588;13.396;2022-10-31T09:59:58;101690.91;;;31.64;31.09
57192;BME280;43052;52.588;13.396;2022-10-31T10:02:30;101713.75;;;32.70;30.01
57192;BME280;43052;52.588;13.396;2022-10-31T10:05:05;101703.44;;;33.49;28.56
57192;BME280;43052;52.588;13.396;2022-10-31T10:07:54;101700.13;;;33.76;27.70
57192;BME280;43052;52.588;13.396;2022-10-31T10:10:49;101689.63;;;34.02;27.35
57192;BME280;43052;52.588;13.396;2022-10-31T10:19:48;101690.34;;;34.83;27.00
57192;BME280;43052;52.588;13.396;2022-10-31T10:22:46;101688.78;;;34.80;26.55
57192;BME280;43052;52.588;13.396;2022-10-31T10:25:26;101690.06;;;34.86;25.78
57192;BME280;43052;52.588;13.396;2022-10-31T10:30:42;101687.22;;;34.19;27.10
57192;BME280;43052;52.588;13.396;2022-10-31T10:33:13;101694.56;;;33.47;27.72
57192;BME280;43052;52.588;13.396;2022-10-31T10:35:46;101682.41;;;32.68;28.51
57192;BME280;43052;52.588;13.396;2022-10-31T10:38:17;101682.06;;;31.62;30.13
57192;BME280;43052;52.588;13.396;2022-10-31T10:40:45;101680.59;;;30.41;32.49
57192;BME280;43052;52.588;13.396;2022-10-31T10:43:31;101683.75;;;28.83;34.61
57192;BME280;43052;52.588;13.396;2022-10-31T10:49:32;101675.81;;;26.21;38.96
57192;BME280;43052;52.588;13.396;2022-10-31T10:52:29;101675.38;;;25.47;41.07
57192;BME280;43052;52.588;13.396;2022-10-31T10:55:16;101673.25;;;25.02;41.88
57192;BME280;43052;52.588;13.396;2022-10-31T10:57:55;101680.91;;;24.56;42.61
57192;BME280;43052;52.588;13.396;2022-10-31T11:00:22;101677.22;;;24.22;43.33
57192;BME280;43052;52.588;13.396;2022-10-31T11:02:49;101684.03;;;23.91;44.11
57192;BME280;43052;52.588;13.396;2022-10-31T11:05:42;101681.47;;;23.50;44.96
57192;BME280;43052;52.588;13.396;2022-10-31T11:08:10;101682.28;;;23.10;45.79
57192;BME280;43052;52.588;13.396;2022-10-31T11:10:35;101670.34;;;22.78;46.79
57192;BME280;43052;52.588;13.396;2022-10-31T11:13:06;101680.78;;;22.62;47.46
57192;BME280;43052;52.588;13.396;2022-10-31T11:15:56;101672.00;;;22.37;48.16
57192;BME280;43052;52.588;13.396;2022-10-31T11:18:26;101670.13;;;22.17;48.52
57192;BME280;43052;52.588;13.396;2022-10-31T11:20:54;101671.97;;;21.93;48.86
57192;BME280;43052;52.588;13.396;2022-10-31T11:23:21;101666.44;;;21.75;49.49
57192;BME280;43052;52.588;13.396;2022-10-31T11:25:55;101667.72;;;21.65;49.95
57192;BME280;43052;52.588;13.396;2022-10-31T11:28:21;101663.09;;;21.45;50.39
57192;BME280;43052;52.588;13.396;2022-10-31T11:30:57;101662.78;;;21.29;51.25
57192;BME280;43052;52.588;13.396;2022-10-31T11:33:30;101665.09;;;21.15;51.50
57192;BME280;43052;52.588;13.396;2022-10-31T11:35:57;101645.22;;;21.00;51.59
57192;BME280;43052;52.588;13.396;2022-10-31T11:38:26;101664.38;;;21.09;51.96
57192;BME280;43052;52.588;13.396;2022-10-31T11:44:28;101657.41;;;20.80;52.74
57192;BME280;43052;52.588;13.396;2022-10-31T11:46:57;101672.13;;;20.63;53.24
57192;BME280;43052;52.588;13.396;2022-10-31T11:49:40;101662.91;;;20.47;53.89
57192;BME280;43052;52.588;13.396;2022-10-31T11:52:13;101661.94;;;20.49;53.94
57192;BME280;43052;52.588;13.396;2022-10-31T11:55:13;101660.28;;;20.45;54.66
57192;BME280;43052;52.588;13.396;2022-10-31T11:57:50;101652.06;;;20.26;54.59
57192;BME280;43052;52.588;13.396;2022-10-31T12:00:23;101662.63;;;20.28;54.78
57192;BME280;43052;52.588;13.396;2022-10-31T12:02:50;101662.78;;;20.23;54.90
57192;BME280;43052;52.588;13.396;2022-10-31T12:05:23;101656.06;;;20.11;55.05
57192;BME280;43052;52.588;13.396;2022-10-31T12:07:50;101664.19;;;20.07;55.33
57192;BME280;43052;52.588;13.396;2022-10-31T12:10:15;101658.09;;;20.03;55.70
57192;BME280;43052;52.588;13.396;2022-10-31T12:15:52;101656.75;;;19.90;56.51
57192;BME280;43052;52.588;13.396;2022-10-31T12:21:24;101646.03;;;19.63;57.25
57192;BME280;43052;52.588;13.396;2022-10-31T12:24:04;101646.78;;;19.66;57.42
57192;BME280;43052;52.588;13.396;2022-10-31T12:26:58;101636.19;;;19.66;57.27
57192;BME280;43052;52.588;13.396;2022-10-31T12:29:43;101645.63;;;19.77;57.14
57192;BME280;43052;52.588;13.396;2022-10-31T12:34:49;101627.59;;;19.58;57.53
57192;BME280;43052;52.588;13.396;2022-10-31T12:43:25;101636.06;;;19.39;58.51
57192;BME280;43052;52.588;13.396;2022-10-31T12:45:59;101631.03;;;19.30;58.56
57192;BME280;43052;52.588;13.396;2022-10-31T12:48:45;101630.38;;;19.22;59.23
57192;BME280;43052;52.588;13.396;2022-10-31T12:51:24;101626.94;;;19.18;59.38
57192;BME280;43052;52.588;13.396;2022-10-31T12:57:27;101634.03;;;19.18;59.89
57192;BME280;43052;52.588;13.396;2022-10-31T13:00:02;101632.31;;;19.17;59.85
57192;BME280;43052;52.588;13.396;2022-10-31T13:05:30;101619.66;;;19.26;59.73
57192;BME280;43052;52.588;13.396;2022-10-31T13:08:11;101610.97;;;19.21;59.87
57192;BME280;43052;52.588;13.396;2022-10-31T13:10:55;101619.78;;;19.22;59.87
57192;BME280;43052;52.588;13.396;2022-10-31T13:13:36;101605.00;;;19.13;60.18
57192;BME280;43052;52.588;13.396;2022-10-31T13:16:13;101623.41;;;19.18;60.35
57192;BME280;43052;52.588;13.396;2022-10-31T13:18:47;101613.75;;;19.17;60.19
57192;BME280;43052;52.588;13.396;2022-10-31T13:21:38;101617.38;;;19.13;60.55
57192;BME280;43052;52.588;13.396;2022-10-31T13:24:11;101614.06;;;19.04;60.52
57192;BME280;43052;52.588;13.396;2022-10-31T13:26:46;101612.50;;;18.97;61.02
57192;BME280;43052;52.588;13.396;2022-10-31T13:29:22;101612.72;;;18.88;61.22
57192;BME280;43052;52.588;13.396;2022-10-31T13:31:49;101614.66;;;18.81;61.61
57192;BME280;43052;52.588;13.396;2022-10-31T13:34:23;101602.44;;;18.75;61.69
57192;BME280;43052;52.588;13.396;2022-10-31T13:37:03;101607.00;;;18.70;62.10
57192;BME280;43052;52.588;13.396;2022-10-31T13:39:44;101610.56;;;18.69;62.43
57192;BME280;43052;52.588;13.396;2022-10-31T13:45:11;101592.25;;;18.60;62.21
57192;BME280;43052;52.588;13.396;2022-10-31T13:47:36;101602.78;;;18.63;62.34